createdAt,value
2022-08-05T00:01:00.962Z,49.54
2022-08-05T00:03:49.612Z,49.64
2022-08-05T00:06:32.268Z,49.93
2022-08-05T00:09:12.724Z,50.08
2022-08-05T00:11:48.325Z,50.05
2022-08-05T00:14:21.874Z,50.33
2022-08-05T00:17:01.885Z,50.46
2022-08-05T00:20:01.923Z,50.37
2022-08-05T00:22:27.419Z,50.76
2022-08-05T00:24:59.519Z,50.76
2022-08-05T00:27:36.113Z,51.07
2022-08-05T00:30:11.393Z,50.94
2022-08-05T00:32:43.785Z,51.28
2022-08-05T00:35:20.329Z,51.48
2022-08-05T00:37:54.130Z,51.67
2022-08-05T00:40:29.392Z,51.77
2022-08-05T00:43:07.430Z,51.89
2022-08-05T00:45:43.955Z,51.94
2022-08-05T00:48:31.287Z,52.04
2022-08-05T00:51:08.842Z,52.40
2022-08-05T00:54:02.362Z,52.46
2022-08-05T00:56:35.343Z,52.86
2022-08-05T00:59:08.823Z,52.68
2022-08-05T01:01:48.392Z,52.96
2022-08-05T01:04:30.079Z,53.01
2022-08-05T01:07:05.150Z,53.26
2022-08-05T01:09:37.676Z,53.48
2022-08-05T01:12:18.826Z,53.46
2022-08-05T01:14:59.011Z,53.64
2022-08-05T01:17:44.001Z,53.65
2022-08-05T01:20:27.583Z,54.02
2022-08-05T01:23:23.269Z,53.99
2022-08-05T01:26:08.883Z,54.10
2022-08-05T01:28:48.035Z,54.30
2022-08-05T01:31:29.185Z,54.26
2022-08-05T01:34:05.892Z,54.33
2022-08-05T01:36:47.000Z,54.54
2022-08-05T01:39:46.620Z,54.36
2022-08-05T01:42:17.799Z,54.51
2022-08-05T01:44:54.104Z,54.79
2022-08-05T01:47:38.620Z,54.87
2022-08-05T01:50:16.094Z,55.15
2022-08-05T01:52:51.695Z,55.18
2022-08-05T01:55:28.986Z,55.18
2022-08-05T01:58:29.946Z,55.37
2022-08-05T02:01:01.240Z,55.47
2022-08-05T02:03:37.949Z,55.66
2022-08-05T02:06:37.252Z,55.63
2022-08-05T02:09:06.502Z,55.81
2022-08-05T02:11:52.631Z,55.99
2022-08-05T02:14:32.248Z,56.14
2022-08-05T02:17:17.020Z,56.05
2022-08-05T02:20:12.553Z,56.32
2022-08-05T02:22:48.235Z,56.48
2022-08-05T02:25:26.144Z,56.50
2022-08-05T02:28:08.664Z,56.66
2022-08-05T02:30:54.146Z,56.77
2022-08-05T02:33:36.242Z,56.95
2022-08-05T02:36:16.069Z,56.89
2022-08-05T02:38:53.387Z,57.17
2022-08-05T02:41:28.604Z,57.24
2022-08-05T02:44:13.347Z,57.37
2022-08-05T02:46:58.387Z,57.48
2022-08-05T02:49:37.667Z,57.35
2022-08-05T02:52:29.832Z,57.68
2022-08-05T02:55:05.524Z,57.69
2022-08-05T02:58:09.912Z,57.84
2022-08-05T03:00:38.182Z,57.99
2022-08-05T03:03:12.251Z,58.13
2022-08-05T03:06:55.042Z,58.07
2022-08-05T03:08:38.649Z,58.20
2022-08-05T03:11:57.059Z,58.22
2022-08-05T03:14:15.180Z,58.50
2022-08-05T03:16:48.250Z,58.39
2022-08-05T03:19:34.661Z,58.41
2022-08-05T03:22:16.467Z,58.63
2022-08-05T03:24:52.684Z,58.62
2022-08-05T03:27:39.207Z,58.77
2022-08-05T03:30:18.461Z,58.78
2022-08-05T03:32:53.186Z,58.82
2022-08-05T03:35:25.916Z,58.90
2022-08-05T03:38:00.133Z,58.97
2022-08-05T03:40:32.814Z,59.12
2022-08-05T03:43:58.603Z,59.14
2022-08-05T03:45:58.799Z,59.03
2022-08-05T03:48:35.387Z,59.11
2022-08-05T03:52:36.628Z,59.32
2022-08-05T03:55:52.519Z,59.36
2022-08-05T03:57:16.389Z,59.32
2022-08-05T03:59:55.622Z,59.35
2022-08-05T04:02:38.438Z,59.39
2022-08-05T04:05:18.924Z,59.41
2022-08-05T04:07:57.968Z,59.40
2022-08-05T04:10:37.928Z,59.49
2022-08-05T04:13:10.628Z,59.44
2022-08-05T04:16:02.774Z,59.60
2022-08-05T04:18:35.502Z,59.67
2022-08-05T04:21:11.132Z,59.59
2022-08-05T04:24:00.230Z,59.45
2022-08-05T04:26:36.186Z,59.51
2022-08-05T04:29:08.500Z,59.58
2022-08-05T04:31:41.363Z,59.52
2022-08-05T04:34:31.320Z,59.84
2022-08-05T04:37:05.741Z,59.52
2022-08-05T04:39:37.819Z,59.52
2022-08-05T04:42:12.073Z,59.54
2022-08-05T04:44:44.195Z,59.37
2022-08-05T04:47:20.023Z,59.50
2022-08-05T04:50:02.968Z,59.37
2022-08-05T04:52:43.935Z,59.21
2022-08-05T04:55:17.240Z,59.30
2022-08-05T04:58:06.597Z,59.09
2022-08-05T05:00:45.142Z,59.01
2022-08-05T05:03:22.913Z,58.74
2022-08-05T05:06:36.668Z,58.75
2022-08-05T05:08:49.942Z,58.35
2022-08-05T05:11:22.800Z,58.05
2022-08-05T05:14:16.242Z,57.77
2022-08-05T05:16:48.504Z,56.97
2022-08-05T05:19:26.526Z,54.92
2022-08-05T05:22:00.016Z,52.86
2022-08-05T05:24:58.597Z,50.22
2022-08-05T05:27:44.750Z,47.64
2022-08-05T05:30:30.410Z,44.85
2022-08-05T05:33:15.977Z,42.97
2022-08-05T05:35:50.272Z,41.22
2022-08-05T05:38:27.500Z,39.23
2022-08-05T05:41:00.240Z,38.58
2022-08-05T05:43:58.237Z,37.31
2022-08-05T05:46:24.473Z,36.04
2022-08-05T05:48:57.501Z,34.59
2022-08-05T05:51:30.003Z,33.16
2022-08-05T05:54:22.438Z,31.89
2022-08-05T05:57:19.070Z,30.29
2022-08-05T05:59:51.396Z,28.74
2022-08-05T06:02:37.476Z,28.26
2022-08-05T06:05:16.631Z,27.17
2022-08-05T06:07:57.812Z,27.44
2022-08-05T06:10:36.717Z,27.29
2022-08-05T06:13:09.884Z,26.41
2022-08-05T06:16:28.741Z,26.67
2022-08-05T06:18:36.510Z,25.93
2022-08-05T06:21:18.494Z,25.46
2022-08-05T06:23:51.256Z,25.36
2022-08-05T06:26:25.065Z,25.45
2022-08-05T06:28:57.346Z,25.11
2022-08-05T06:31:30.564Z,24.57
2022-08-05T06:34:08.905Z,24.24
2022-08-05T06:36:57.551Z,23.77
2022-08-05T06:39:31.310Z,23.20
2022-08-05T06:42:04.971Z,23.52
2022-08-05T06:44:37.030Z,23.39
2022-08-05T06:48:11.505Z,23.52
2022-08-05T06:50:05.393Z,22.75
2022-08-05T06:52:40.453Z,23.36
2022-08-05T06:55:13.291Z,22.90
2022-08-05T06:57:57.282Z,22.32
2022-08-05T07:00:35.845Z,23.57
2022-08-05T07:03:13.414Z,23.09
2022-08-05T07:05:48.861Z,23.25
2022-08-05T07:08:23.443Z,23.60
2022-08-05T07:10:57.251Z,23.16
2022-08-05T07:13:59.405Z,22.57
2022-08-05T07:17:56.010Z,21.85
2022-08-05T07:20:31.226Z,22.19
2022-08-05T07:22:35.133Z,22.46
2022-08-05T07:25:22.779Z,22.69
2022-08-05T07:28:04.206Z,23.29
2022-08-05T07:30:40.835Z,23.06
2022-08-05T07:33:17.112Z,22.93
2022-08-05T07:36:02.515Z,22.79
2022-08-05T07:38:44.204Z,22.23
2022-08-05T07:42:12.941Z,22.03
2022-08-05T07:44:19.304Z,22.24
2022-08-05T07:46:51.859Z,22.38
2022-08-05T07:49:23.957Z,22.30
2022-08-05T07:51:56.233Z,22.86
2022-08-05T07:54:30.207Z,22.87
2022-08-05T07:57:23.666Z,22.78
2022-08-05T07:59:57.105Z,22.63
2022-08-05T08:02:31.413Z,22.34
2022-08-05T08:05:22.546Z,22.79
2022-08-05T08:07:59.655Z,22.31
2022-08-05T08:10:32.852Z,23.44
2022-08-05T08:13:05.249Z,23.60
2022-08-05T08:16:35.469Z,23.34
2022-08-05T08:18:30.060Z,23.13
2022-08-05T08:21:04.041Z,23.47
2022-08-05T08:24:03.101Z,23.24
2022-08-05T08:26:34.634Z,23.50
2022-08-05T08:30:03.126Z,23.37
2022-08-05T08:31:58.791Z,22.73
2022-08-05T08:34:33.306Z,23.03
2022-08-05T08:37:06.277Z,22.37
2022-08-05T08:39:49.290Z,22.48
2022-08-05T08:42:34.053Z,22.71
2022-08-05T08:45:26.738Z,22.53
2022-08-05T08:48:10.634Z,22.87
2022-08-05T08:51:22.572Z,23.50
2022-08-05T08:53:47.746Z,24.00
2022-08-05T08:56:22.174Z,24.25
2022-08-05T08:58:54.362Z,24.15
2022-08-05T09:01:26.627Z,24.52
2022-08-05T09:04:00.488Z,24.07
2022-08-05T09:06:36.395Z,24.46
2022-08-05T09:09:08.909Z,24.26
2022-08-05T09:11:52.037Z,23.93
2022-08-05T09:14:58.275Z,24.14
2022-08-05T09:17:41.393Z,24.23
2022-08-05T09:20:21.059Z,23.96
2022-08-05T09:23:18.677Z,24.45
2022-08-05T09:26:01.420Z,24.88
2022-08-05T09:28:37.665Z,25.93
2022-08-05T09:31:23.318Z,25.70
2022-08-05T09:34:07.124Z,26.32
2022-08-05T09:36:54.167Z,26.67
2022-08-05T09:39:41.550Z,26.13
2022-08-05T09:42:24.343Z,25.83
2022-08-05T09:46:05.207Z,25.89
2022-08-05T09:48:01.801Z,26.16
2022-08-05T09:50:43.839Z,25.76
2022-08-05T09:53:26.003Z,25.82
2022-08-05T09:56:13.108Z,25.82
2022-08-05T09:58:59.248Z,26.40
2022-08-05T10:01:33.765Z,26.44
2022-08-05T10:04:10.591Z,26.57
2022-08-05T10:06:59.014Z,27.08
2022-08-05T10:09:45.337Z,27.26
2022-08-05T10:12:18.925Z,26.67
2022-08-05T10:15:20.196Z,27.01
2022-08-05T10:18:16.734Z,26.87
2022-08-05T10:20:52.709Z,27.04
2022-08-05T10:23:55.517Z,26.89
2022-08-05T10:26:24.430Z,27.31
2022-08-05T10:29:05.253Z,27.25
2022-08-05T10:32:55.767Z,27.78
2022-08-05T10:34:32.385Z,28.07
2022-08-05T10:37:04.663Z,28.52
2022-08-05T10:40:04.059Z,28.55
2022-08-05T10:42:38.586Z,28.30
2022-08-05T10:45:23.319Z,28.39
2022-08-05T10:48:30.201Z,28.59
2022-08-05T10:51:22.074Z,28.86
2022-08-05T10:54:02.060Z,28.55
2022-08-05T10:56:56.069Z,28.62
2022-08-05T11:00:02.765Z,28.63
2022-08-05T11:02:38.044Z,28.90
2022-08-05T11:05:13.600Z,29.33
2022-08-05T11:08:21.720Z,29.22
2022-08-05T11:11:00.981Z,29.40
2022-08-05T11:13:57.692Z,30.09
2022-08-05T11:16:33.688Z,30.29
2022-08-05T11:20:17.105Z,30.55
2022-08-05T11:22:49.982Z,30.35
2022-08-05T11:26:04.251Z,30.49
2022-08-05T11:28:49.868Z,30.96
2022-08-05T11:31:57.341Z,31.13
2022-08-05T11:34:50.781Z,31.21
2022-08-05T11:38:29.585Z,31.53
2022-08-05T11:41:35.621Z,31.62
2022-08-05T11:44:04.819Z,32.09
2022-08-05T11:47:09.970Z,31.91
2022-08-05T11:49:34.621Z,32.07
2022-08-05T11:52:08.661Z,32.24
2022-08-05T11:54:48.505Z,32.30
2022-08-05T11:58:08.314Z,32.68
2022-08-05T12:00:31.251Z,32.55
2022-08-05T12:03:28.570Z,32.16
2022-08-05T12:06:10.132Z,32.67
2022-08-05T12:08:50.020Z,32.56
2022-08-05T12:11:28.373Z,32.65
2022-08-05T12:14:12.913Z,32.85
2022-08-05T12:16:48.784Z,32.66
2022-08-05T12:20:25.800Z,32.00
2022-08-05T12:22:17.974Z,31.95
2022-08-05T12:24:56.115Z,31.74
2022-08-05T12:27:33.064Z,31.66
2022-08-05T12:30:09.013Z,31.62
2022-08-05T12:32:51.173Z,31.93
2022-08-05T12:35:36.984Z,31.80
2022-08-05T12:38:12.642Z,31.83
2022-08-05T12:40:48.084Z,32.28
2022-08-05T12:43:24.327Z,31.83
2022-08-05T12:46:04.957Z,32.37
2022-08-05T12:48:42.543Z,32.36
2022-08-05T12:51:21.706Z,32.72
2022-08-05T12:54:14.678Z,32.51
2022-08-05T12:56:52.851Z,32.51
2022-08-05T12:59:27.446Z,32.53
2022-08-05T13:02:27.380Z,32.55
2022-08-05T13:05:07.498Z,32.93
2022-08-05T13:08:01.002Z,32.95
2022-08-05T13:10:34.399Z,32.59
2022-08-05T13:13:09.410Z,32.84
2022-08-05T13:16:02.073Z,33.11
2022-08-05T13:18:51.666Z,33.29
2022-08-05T13:21:24.003Z,33.08
2022-08-05T13:24:01.080Z,32.89
2022-08-05T13:26:36.695Z,33.08
2022-08-05T13:29:08.832Z,32.94
2022-08-05T13:32:04.047Z,33.11
2022-08-05T13:34:34.147Z,33.27
2022-08-05T13:37:10.030Z,33.15
2022-08-05T13:40:15.958Z,33.23
2022-08-05T13:42:34.349Z,33.15
2022-08-05T13:45:08.086Z,33.04
2022-08-05T13:48:09.782Z,32.81
2022-08-05T13:50:34.441Z,32.61
2022-08-05T13:53:08.928Z,32.99
2022-08-05T13:55:50.255Z,33.23
2022-08-05T13:58:32.403Z,33.41
2022-08-05T14:01:05.312Z,33.52
2022-08-05T14:03:39.350Z,33.48
2022-08-05T14:06:26.090Z,33.76
2022-08-05T14:08:59.508Z,33.80
2022-08-05T14:11:31.751Z,33.83
2022-08-05T14:14:25.449Z,34.00
2022-08-05T14:16:59.013Z,34.13
2022-08-05T14:19:32.895Z,34.08
2022-08-05T14:22:25.364Z,34.19
2022-08-05T14:25:02.856Z,34.21
2022-08-05T14:27:38.621Z,34.27
2022-08-05T14:30:21.344Z,34.45
2022-08-05T14:32:53.488Z,34.39
2022-08-05T14:35:50.477Z,34.38
2022-08-05T14:38:32.242Z,34.67
2022-08-05T14:41:08.295Z,34.86
2022-08-05T14:43:59.058Z,34.86
2022-08-05T14:46:34.973Z,34.95
2022-08-05T14:49:08.418Z,35.11
2022-08-05T14:51:43.209Z,35.14
2022-08-05T14:54:28.066Z,34.95
2022-08-05T14:57:05.146Z,35.08
2022-08-05T14:59:41.880Z,35.15
2022-08-05T15:02:15.936Z,35.50
2022-08-05T15:04:49.907Z,35.75
2022-08-05T15:08:08.913Z,35.74
2022-08-05T15:10:14.411Z,35.94
2022-08-05T15:13:00.596Z,35.91
2022-08-05T15:15:54.960Z,36.19
2022-08-05T15:18:28.086Z,36.20
2022-08-05T15:21:07.443Z,36.27
2022-08-05T15:23:40.239Z,36.59
2022-08-05T15:26:12.470Z,36.77
2022-08-05T15:28:44.641Z,36.96
2022-08-05T15:31:24.192Z,36.84
2022-08-05T15:34:31.497Z,36.92
2022-08-05T15:37:03.557Z,37.26
2022-08-05T15:41:00.571Z,37.48
2022-08-05T15:42:54.051Z,37.59
2022-08-05T15:45:38.216Z,37.56
2022-08-05T15:48:14.335Z,37.57
2022-08-05T15:50:49.144Z,37.57
2022-08-05T15:53:23.091Z,37.66
2022-08-05T15:56:05.582Z,37.65
2022-08-05T15:58:39.625Z,37.59
2022-08-05T16:01:17.427Z,37.71
2022-08-05T16:03:51.076Z,37.65
2022-08-05T16:06:24.261Z,37.63
2022-08-05T16:08:56.278Z,37.78
2022-08-05T16:11:39.958Z,37.91
2022-08-05T16:14:17.201Z,37.94
2022-08-05T16:16:50.814Z,38.07
2022-08-05T16:20:03.754Z,38.18
2022-08-05T16:22:15.649Z,38.15
2022-08-05T16:24:51.837Z,38.09
2022-08-05T16:27:46.753Z,38.17
2022-08-05T16:30:26.496Z,38.19
2022-08-05T16:33:01.569Z,38.37
2022-08-05T16:35:42.210Z,38.25
2022-08-05T16:38:25.610Z,38.11
2022-08-05T16:42:12.301Z,38.21
2022-08-05T16:43:56.095Z,37.64
2022-08-05T16:46:28.678Z,37.95
2022-08-05T16:49:00.702Z,38.20
2022-08-05T16:51:42.834Z,38.22
2022-08-05T16:54:28.937Z,38.34
2022-08-05T16:57:04.552Z,38.13
2022-08-05T17:00:01.750Z,38.28
2022-08-05T17:02:38.226Z,38.16
2022-08-05T17:05:11.999Z,38.30
2022-08-05T17:07:53.090Z,38.44
2022-08-05T17:10:30.440Z,38.53
2022-08-05T17:13:02.834Z,38.33
2022-08-05T17:15:48.949Z,38.30
2022-08-05T17:18:23.246Z,38.50
2022-08-05T17:20:55.781Z,38.57
2022-08-05T17:24:03.383Z,38.65
2022-08-05T17:26:20.467Z,38.62
2022-08-05T17:28:55.740Z,38.67
2022-08-05T17:31:41.267Z,38.67
2022-08-05T17:34:20.179Z,38.70
2022-08-05T17:37:04.472Z,38.75
2022-08-05T17:39:37.217Z,38.61
2022-08-05T17:42:17.919Z,38.59
2022-08-05T17:44:52.848Z,38.67
2022-08-05T17:47:25.219Z,38.82
2022-08-05T17:50:03.870Z,38.82
2022-08-05T17:52:52.600Z,38.81
2022-08-05T17:55:37.638Z,38.86
2022-08-05T17:58:14.371Z,38.93
2022-08-05T18:00:50.719Z,39.02
2022-08-05T18:03:56.259Z,38.92
2022-08-05T18:06:17.230Z,39.10
2022-08-05T18:08:52.485Z,39.13
2022-08-05T18:11:32.515Z,39.19
2022-08-05T18:14:07.489Z,39.22
2022-08-05T18:16:51.853Z,39.42
2022-08-05T18:19:25.986Z,39.37
2022-08-05T18:22:07.862Z,39.53
2022-08-05T18:24:43.579Z,39.48
2022-08-05T18:27:18.776Z,39.57
2022-08-05T18:29:54.590Z,39.88
2022-08-05T18:32:28.199Z,39.77
2022-08-05T18:35:02.013Z,39.75
2022-08-05T18:37:40.384Z,39.80
2022-08-05T18:40:34.545Z,39.98
2022-08-05T18:43:09.191Z,40.25
2022-08-05T18:45:49.001Z,40.15
2022-08-05T18:48:31.252Z,40.24
2022-08-05T18:52:04.446Z,40.31
2022-08-05T18:54:14.763Z,40.50
2022-08-05T18:56:51.028Z,40.69
2022-08-05T18:59:50.672Z,40.83
2022-08-05T19:02:27.116Z,41.03
2022-08-05T19:06:06.312Z,41.02
2022-08-05T19:07:57.012Z,41.19
2022-08-05T19:10:31.593Z,41.23
2022-08-05T19:13:03.893Z,41.47
2022-08-05T19:15:59.407Z,41.49
2022-08-05T19:18:29.939Z,41.64
2022-08-05T19:21:03.437Z,41.55
2022-08-05T19:24:07.125Z,41.73
2022-08-05T19:26:30.906Z,41.70
2022-08-05T19:29:03.081Z,42.06
2022-08-05T19:31:50.640Z,42.02
2022-08-05T19:34:24.073Z,41.85
2022-08-05T19:36:56.066Z,41.85
2022-08-05T19:39:30.109Z,41.42
2022-08-05T19:42:07.679Z,41.19
2022-08-05T19:44:45.212Z,40.85
2022-08-05T19:47:19.121Z,40.58
2022-08-05T19:49:51.489Z,40.14
2022-08-05T19:52:31.377Z,40.15
2022-08-05T19:55:06.896Z,39.89
2022-08-05T19:57:49.217Z,39.93
2022-08-05T20:00:33.370Z,39.78
2022-08-05T20:03:09.079Z,39.64
2022-08-05T20:05:50.167Z,39.64
2022-08-05T20:08:24.548Z,39.59
2022-08-05T20:10:58.032Z,39.61
2022-08-05T20:13:58.262Z,39.55
2022-08-05T20:16:24.877Z,39.78
2022-08-05T20:18:57.079Z,39.77
2022-08-05T20:21:29.224Z,39.98
2022-08-05T20:24:03.056Z,39.86
2022-08-05T20:26:35.224Z,40.09
2022-08-05T20:29:07.389Z,40.08
2022-08-05T20:31:59.755Z,40.19
2022-08-05T20:34:32.102Z,40.25
2022-08-05T20:37:04.317Z,40.45
2022-08-05T20:39:51.680Z,40.60
2022-08-05T20:42:24.147Z,40.55
2022-08-05T20:45:00.695Z,40.70
2022-08-05T20:47:35.233Z,40.75
2022-08-05T20:50:13.510Z,40.83
2022-08-05T20:52:47.720Z,40.99
2022-08-05T20:56:07.965Z,41.04
2022-08-05T20:58:15.314Z,41.13
2022-08-05T21:00:52.045Z,41.33
2022-08-05T21:03:26.809Z,41.48
2022-08-05T21:05:59.056Z,41.46
2022-08-05T21:08:41.950Z,41.47
2022-08-05T21:12:09.558Z,41.51
2022-08-05T21:14:08.619Z,41.83
2022-08-05T21:16:44.353Z,41.89
